Time;durP1;ratioP1;P1;durP2;ratioP2;P2;SDS_P1;SDS_P2;PMS_P1;PMS_P2;Temp;Humidity;BMP_temperature;BMP_pressure;BME280_temperature;BME280_humidity;BME280_pressure;Samples;Min_cycle;Max_cycle;Signal;HPM_P1;HPM_P2
2021/05/30 00:00:43;;;;;;;6.18;4.95;;;10.40;99.90;;;;;;4989775;28;20030;-80
2021/05/30 00:03:09;;;;;;;8.30;5.63;;;10.40;99.90;;;;;;4989535;28;20027;-80
2021/05/30 00:05:36;;;;;;;5.72;4.68;;;10.30;99.90;;;;;;4989640;28;20038;-81
2021/05/30 00:08:01;;;;;;;6.03;4.00;;;10.20;99.90;;;;;;4989194;28;20062;-79
2021/05/30 00:10:27;;;;;;;7.00;4.50;;;10.20;99.90;;;;;;4972018;28;20035;-79
2021/05/30 00:12:53;;;;;;;4.95;4.10;;;10.20;99.90;;;;;;4971979;28;20019;-78
2021/05/30 00:15:19;;;;;;;9.88;5.97;;;10.20;99.90;;;;;;4956013;28;20035;-80
2021/05/30 00:17:45;;;;;;;6.35;4.75;;;10.10;99.90;;;;;;4955708;28;20037;-79
2021/05/30 00:20:11;;;;;;;9.20;5.72;;;10.10;99.90;;;;;;4971543;28;20045;-78
2021/05/30 00:22:37;;;;;;;8.45;6.20;;;9.90;99.90;;;;;;4971859;28;20042;-80
2021/05/30 00:25:05;;;;;;;7.68;4.93;;;10.00;99.90;;;;;;4988958;28;20046;-79
2021/05/30 00:27:32;;;;;;;7.72;5.82;;;9.90;99.90;;;;;;4987654;28;20041;-80
2021/05/30 00:29:58;;;;;;;7.60;4.57;;;9.80;99.90;;;;;;4988104;28;20035;-80
2021/05/30 00:32:24;;;;;;;11.65;7.50;;;9.80;99.90;;;;;;4988647;28;20031;-80
2021/05/30 00:34:49;;;;;;;9.45;6.65;;;9.70;99.90;;;;;;4988627;28;20027;-80
2021/05/30 00:37:15;;;;;;;9.35;6.18;;;9.70;99.90;;;;;;4973078;28;20031;-79
2021/05/30 00:39:40;;;;;;;10.15;7.68;;;9.60;99.90;;;;;;4955818;28;20023;-80
2021/05/30 00:42:06;;;;;;;9.10;6.68;;;9.60;99.90;;;;;;4989059;28;20037;-80
2021/05/30 00:44:32;;;;;;;9.52;7.30;;;9.50;99.90;;;;;;4987551;28;20119;-80
2021/05/30 00:46:59;;;;;;;9.48;6.47;;;9.50;99.90;;;;;;4988730;28;20034;-80
2021/05/30 00:49:26;;;;;;;9.90;6.93;;;9.50;99.90;;;;;;4971204;28;20039;-80
2021/05/30 00:51:52;;;;;;;9.50;6.88;;;9.40;99.90;;;;;;4988781;28;20031;-80
2021/05/30 00:54:18;;;;;;;9.10;6.68;;;9.40;99.90;;;;;;4971594;28;20035;-80
2021/05/30 00:56:44;;;;;;;10.15;7.35;;;9.40;99.90;;;;;;4987266;28;20086;-80
2021/05/30 00:59:11;;;;;;;12.15;8.18;;;9.30;99.90;;;;;;4971158;28;20376;-80
2021/05/30 01:01:37;;;;;;;9.85;7.07;;;9.30;99.90;;;;;;4987338;28;20027;-80
2021/05/30 01:04:03;;;;;;;11.95;8.15;;;9.30;99.90;;;;;;4988460;28;20031;-79
2021/05/30 01:06:30;;;;;;;5.13;4.07;;;9.20;99.90;;;;;;4988259;28;20062;-79
2021/05/30 01:08:58;;;;;;;9.77;7.60;;;9.30;99.90;;;;;;4989015;28;20062;-80
2021/05/30 01:11:24;;;;;;;12.48;8.25;;;9.20;99.90;;;;;;4989305;28;20030;-80
2021/05/30 01:13:52;;;;;;;11.35;8.05;;;9.20;99.90;;;;;;4972317;28;20434;-80
2021/05/30 01:16:19;;;;;;;15.82;10.00;;;9.10;99.90;;;;;;4971024;28;20114;-81
2021/05/30 01:18:48;;;;;;;13.45;9.48;;;9.00;99.90;;;;;;4970887;28;20039;-80
2021/05/30 01:21:14;;;;;;;12.75;8.75;;;9.00;99.90;;;;;;4988095;28;20027;-80
2021/05/30 01:23:40;;;;;;;18.77;12.38;;;9.00;99.90;;;;;;4988194;28;20043;-81
2021/05/30 01:26:06;;;;;;;13.90;9.38;;;8.90;99.90;;;;;;4987740;28;20143;-80
2021/05/30 01:28:32;;;;;;;11.25;7.85;;;8.90;99.90;;;;;;4987750;28;20042;-80
2021/05/30 01:30:58;;;;;;;11.98;8.48;;;8.90;99.90;;;;;;4987824;28;20039;-80
2021/05/30 01:33:23;;;;;;;11.68;8.40;;;8.80;99.90;;;;;;4988015;28;20035;-80
2021/05/30 01:35:49;;;;;;;12.48;8.85;;;8.80;99.90;;;;;;4987578;28;20037;-80
2021/05/30 01:38:15;;;;;;;12.20;7.82;;;8.80;99.90;;;;;;4987776;28;20483;-80
2021/05/30 01:40:41;;;;;;;11.55;7.30;;;8.80;99.90;;;;;;4987638;28;20054;-80
2021/05/30 01:43:07;;;;;;;9.90;6.63;;;8.80;99.90;;;;;;4987583;28;20022;-80
2021/05/30 01:45:34;;;;;;;10.63;6.97;;;8.70;99.90;;;;;;4970258;28;20035;-80
2021/05/30 01:48:02;;;;;;;8.43;4.85;;;8.70;99.90;;;;;;4987529;28;20035;-80
2021/05/30 01:50:30;;;;;;;7.40;5.75;;;8.60;99.90;;;;;;4987765;28;20030;-80
2021/05/30 01:53:00;;;;;;;9.85;5.60;;;8.50;99.90;;;;;;4970073;28;20073;-80
2021/05/30 01:57:53;;;;;;;11.90;6.22;;;8.60;99.90;;;;;;4987244;28;20117;-80
2021/05/30 02:00:20;;;;;;;9.88;6.82;;;8.50;99.90;;;;;;4969937;28;20035;-81
2021/05/30 02:02:50;;;;;;;10.82;7.60;;;8.50;99.90;;;;;;4987388;28;20082;-79
2021/05/30 02:05:37;;;;;;;10.70;6.32;;;8.40;99.90;;;;;;4969788;28;20454;-81
2021/05/30 02:08:06;;;;;;;10.20;6.95;;;8.40;99.90;;;;;;4946277;29;20059;-80
2021/05/30 02:10:32;;;;;;;12.95;7.90;;;8.30;99.90;;;;;;4946296;29;20051;-81
2021/05/30 02:12:58;;;;;;;11.43;6.82;;;8.30;99.90;;;;;;4946350;29;20050;-80
2021/05/30 02:15:24;;;;;;;9.95;6.85;;;8.30;99.90;;;;;;4946389;29;20039;-80
2021/05/30 02:17:50;;;;;;;11.00;6.63;;;8.30;99.90;;;;;;4930507;29;20040;-80
2021/05/30 02:20:18;;;;;;;11.05;7.32;;;8.20;99.90;;;;;;4946272;29;20048;-81
2021/05/30 02:22:43;;;;;;;11.32;8.10;;;8.30;99.90;;;;;;4946462;29;20055;-80
2021/05/30 02:25:11;;;;;;;11.80;7.97;;;8.20;99.90;;;;;;4952505;29;20043;-80
2021/05/30 02:27:37;;;;;;;11.55;7.60;;;8.20;99.90;;;;;;4949193;29;20027;-80
2021/05/30 02:30:04;;;;;;;9.23;6.20;;;8.20;99.90;;;;;;4949263;29;20047;-80
2021/05/30 02:32:29;;;;;;;12.23;8.18;;;8.10;99.90;;;;;;4949209;29;20078;-80
2021/05/30 02:34:55;;;;;;;10.20;6.97;;;8.10;99.90;;;;;;4949469;29;20027;-80
2021/05/30 02:37:20;;;;;;;12.40;7.75;;;8.10;99.90;;;;;;4964992;29;20038;-80
2021/05/30 02:39:46;;;;;;;11.98;7.00;;;8.10;99.90;;;;;;4965219;29;20081;-79
2021/05/30 02:42:12;;;;;;;11.45;7.20;;;8.10;99.90;;;;;;4965296;29;20042;-79
2021/05/30 02:44:39;;;;;;;14.48;8.02;;;8.10;99.90;;;;;;4945093;28;20400;-80
2021/05/30 02:47:05;;;;;;;10.98;7.38;;;8.00;99.90;;;;;;4986613;28;20105;-80
2021/05/30 02:49:32;;;;;;;10.77;6.82;;;8.00;99.90;;;;;;4969236;28;20073;-80
2021/05/30 02:51:59;;;;;;;11.32;7.00;;;8.00;99.90;;;;;;4986470;28;20046;-80
2021/05/30 02:54:24;;;;;;;11.80;7.20;;;8.00;99.90;;;;;;4969574;28;20065;-80
2021/05/30 02:56:50;;;;;;;12.13;7.72;;;7.90;99.90;;;;;;4969167;28;20034;-80
2021/05/30 02:59:16;;;;;;;12.30;7.25;;;8.00;99.90;;;;;;4969360;28;20062;-81
2021/05/30 03:01:41;;;;;;;11.80;6.60;;;7.90;99.90;;;;;;4987103;28;20027;-81
2021/05/30 03:04:07;;;;;;;10.52;7.13;;;7.90;99.90;;;;;;4954319;28;20542;-80
2021/05/30 03:06:33;;;;;;;9.70;5.75;;;7.80;99.90;;;;;;4952864;28;20046;-80
2021/05/30 03:08:59;;;;;;;12.45;7.65;;;7.80;99.90;;;;;;4952988;28;20039;-80
2021/05/30 03:11:25;;;;;;;11.88;8.63;;;7.80;99.90;;;;;;4953087;28;20045;-79
2021/05/30 03:13:52;;;;;;;10.18;6.93;;;7.80;99.90;;;;;;4968881;28;20090;-80
2021/05/30 03:16:19;;;;;;;12.70;8.07;;;7.80;99.90;;;;;;4968831;28;20035;-80
2021/05/30 03:18:45;;;;;;;12.55;7.93;;;7.70;99.90;;;;;;4986547;28;20314;-80
2021/05/30 03:21:12;;;;;;;17.38;9.57;;;7.70;99.90;;;;;;4986331;28;20117;-80
2021/05/30 03:23:37;;;;;;;13.95;8.55;;;7.60;99.90;;;;;;4969047;28;20069;-80
2021/05/30 03:26:03;;;;;;;12.07;8.55;;;7.60;99.90;;;;;;4986272;28;20031;-80
2021/05/30 03:28:29;;;;;;;13.93;8.52;;;7.60;99.90;;;;;;4984900;28;20035;-81
2021/05/30 03:30:55;;;;;;;14.48;8.30;;;7.60;99.90;;;;;;4984994;28;20038;-80
2021/05/30 03:33:21;;;;;;;8.50;5.00;;;7.60;99.90;;;;;;4984973;28;20031;-81
2021/05/30 03:35:47;;;;;;;14.13;8.35;;;7.60;99.90;;;;;;4984771;28;20479;-80
2021/05/30 03:38:14;;;;;;;10.70;7.35;;;7.60;99.90;;;;;;4986263;28;20045;-81
2021/05/30 03:43:07;;;;;;;13.05;8.52;;;7.60;99.90;;;;;;4985504;28;20018;-80
2021/05/30 03:45:32;;;;;;;14.82;9.25;;;7.60;99.90;;;;;;4985427;28;20034;-80
2021/05/30 03:47:58;;;;;;;11.48;6.97;;;7.60;99.90;;;;;;4985568;28;20090;-80
2021/05/30 03:50:24;;;;;;;13.93;9.60;;;7.60;99.90;;;;;;4968163;28;20045;-80
2021/05/30 03:52:50;;;;;;;13.70;7.82;;;7.50;99.90;;;;;;4985385;28;20090;-80
2021/05/30 03:55:16;;;;;;;12.82;9.02;;;7.50;99.90;;;;;;4968195;28;20046;-80
2021/05/30 03:57:42;;;;;;;12.50;8.23;;;7.50;99.90;;;;;;4985571;28;20022;-81
2021/05/30 04:00:11;;;;;;;12.43;7.75;;;7.60;99.90;;;;;;4967950;28;20041;-80
2021/05/30 04:02:37;;;;;;;13.93;9.23;;;7.60;99.90;;;;;;4986478;28;20033;-80
2021/05/30 04:05:04;;;;;;;13.38;8.82;;;7.50;99.90;;;;;;4971540;28;20074;-80
2021/05/30 04:07:32;;;;;;;12.20;8.13;;;7.50;99.90;;;;;;4999772;23;20059;-81
2021/05/30 04:10:02;;;;;;;12.00;7.88;;;7.50;99.90;;;;;;4969771;29;20047;-80
2021/05/30 04:12:29;;;;;;;11.38;7.25;;;7.60;99.90;;;;;;4952587;29;20123;-80
2021/05/30 04:14:55;;;;;;;13.43;8.32;;;7.60;99.90;;;;;;4968633;29;20501;-80
2021/05/30 04:17:21;;;;;;;11.82;7.82;;;7.70;99.90;;;;;;4968132;29;20047;-80
2021/05/30 04:19:46;;;;;;;14.32;8.63;;;7.70;99.90;;;;;;4968568;29;20403;-80
2021/05/30 04:22:12;;;;;;;14.50;8.95;;;7.80;99.90;;;;;;4968212;29;20031;-80
2021/05/30 04:24:38;;;;;;;11.18;7.40;;;7.80;99.90;;;;;;4968315;29;20035;-80
2021/05/30 04:27:04;;;;;;;12.52;6.47;;;7.80;99.90;;;;;;4952326;29;20051;-81
2021/05/30 04:29:30;;;;;;;12.77;7.82;;;7.90;99.90;;;;;;4968138;28;20107;-80
2021/05/30 04:31:55;;;;;;;11.63;7.65;;;8.00;99.90;;;;;;4969437;28;20523;-80
2021/05/30 04:34:21;;;;;;;13.02;8.27;;;8.10;99.90;;;;;;4969484;28;20023;-80
2021/05/30 04:36:47;;;;;;;13.07;7.38;;;8.20;99.90;;;;;;4969064;28;20027;-80
2021/05/30 04:39:12;;;;;;;16.23;8.40;;;8.30;99.90;;;;;;4969366;28;20023;-79
2021/05/30 04:41:38;;;;;;;11.98;7.47;;;8.50;99.90;;;;;;4969362;28;20364;-80
2021/05/30 04:44:04;;;;;;;13.40;9.00;;;8.60;99.90;;;;;;4964773;28;20054;-80
2021/05/30 04:46:29;;;;;;;8.63;6.45;;;8.60;99.90;;;;;;4948363;29;20035;-79
2021/05/30 04:48:55;;;;;;;12.35;8.00;;;8.70;99.90;;;;;;4964211;29;20052;-80
2021/05/30 04:51:21;;;;;;;10.98;7.18;;;8.80;99.90;;;;;;4949670;29;20028;-79
2021/05/30 04:53:46;;;;;;;12.93;8.63;;;8.90;99.90;;;;;;4949584;29;20495;-79
2021/05/30 04:56:19;;;;;;;13.07;8.05;;;9.00;99.90;;;;;;4964178;29;20042;-79
2021/05/30 04:58:45;;;;;;;15.60;8.60;;;9.00;99.90;;;;;;4948383;29;20103;-80
2021/05/30 05:01:11;;;;;;;11.50;7.30;;;9.10;99.90;;;;;;4949482;29;20028;-80
2021/05/30 05:03:36;;;;;;;11.07;8.07;;;9.20;99.90;;;;;;4949322;29;20090;-80
2021/05/30 05:06:03;;;;;;;12.77;8.15;;;9.40;99.90;;;;;;4948020;29;20083;-80
2021/05/30 05:08:28;;;;;;;12.85;8.48;;;9.20;99.90;;;;;;4963661;28;20052;-79
2021/05/30 05:10:54;;;;;;;12.90;8.18;;;9.40;99.90;;;;;;4949210;29;20053;-79
2021/05/30 05:13:21;;;;;;;12.60;7.85;;;9.50;99.90;;;;;;4947505;29;20063;-80
2021/05/30 05:15:51;;;;;;;12.40;8.25;;;9.60;99.90;;;;;;4949094;29;20032;-79
2021/05/30 05:18:22;;;;;;;9.35;6.15;;;9.60;99.90;;;;;;4949040;29;20035;-80
2021/05/30 05:20:49;;;;;;;13.80;8.13;;;9.60;99.90;;;;;;4949149;29;20110;-79
2021/05/30 05:23:17;;;;;;;11.13;7.68;;;9.60;99.90;;;;;;4963708;29;20068;-80
2021/05/30 05:25:43;;;;;;;11.13;7.28;;;9.70;99.90;;;;;;4974288;28;20027;-78
2021/05/30 05:28:09;;;;;;;10.63;7.30;;;9.80;99.90;;;;;;4968145;28;20140;-80
2021/05/30 05:30:35;;;;;;;11.55;7.10;;;9.90;99.90;;;;;;4950562;29;20058;-80
2021/05/30 05:33:01;;;;;;;11.80;7.72;;;10.00;99.90;;;;;;4950718;29;20183;-80
2021/05/30 05:35:27;;;;;;;12.63;7.13;;;10.10;99.90;;;;;;4967862;28;20075;-80
2021/05/30 05:37:57;;;;;;;11.65;7.65;;;10.00;99.90;;;;;;4968204;28;20054;-80
2021/05/30 05:40:24;;;;;;;13.40;8.65;;;10.10;99.90;;;;;;4967982;28;20028;-80
2021/05/30 05:42:51;;;;;;;16.45;9.98;;;10.20;99.90;;;;;;4967863;28;20046;-80
2021/05/30 05:45:17;;;;;;;14.65;9.30;;;10.40;99.90;;;;;;4966422;29;20493;-79
2021/05/30 05:47:44;;;;;;;16.92;11.23;;;10.50;99.90;;;;;;4982581;28;20035;-80
2021/05/30 05:50:18;;;;;;;13.38;9.23;;;10.50;99.90;;;;;;4966282;29;20043;-81
2021/05/30 05:52:45;;;;;;;15.00;10.00;;;10.70;99.90;;;;;;4966568;29;20128;-79
2021/05/30 05:55:11;;;;;;;13.57;8.02;;;10.80;99.90;;;;;;4980187;28;20298;-79
2021/05/30 05:57:38;;;;;;;13.77;9.45;;;10.90;99.90;;;;;;4967526;29;20035;-80
2021/05/30 06:00:10;;;;;;;14.32;9.25;;;11.00;99.90;;;;;;4965970;29;20042;-80
2021/05/30 06:02:38;;;;;;;12.07;8.10;;;11.20;99.90;;;;;;4965973;29;20031;-81
2021/05/30 06:05:05;;;;;;;13.20;8.93;;;11.40;99.90;;;;;;4965901;29;20502;-81
2021/05/30 06:07:31;;;;;;;13.27;9.63;;;11.60;99.90;;;;;;4965743;29;20089;-79
2021/05/30 06:09:57;;;;;;;14.50;8.88;;;11.60;99.90;;;;;;4967129;29;20039;-79
2021/05/30 06:12:22;;;;;;;11.55;8.27;;;11.60;99.90;;;;;;4967371;29;20124;-78
2021/05/30 06:14:48;;;;;;;12.57;8.57;;;11.80;99.90;;;;;;4967182;29;20053;-80
2021/05/30 06:17:13;;;;;;;12.25;8.23;;;12.10;99.90;;;;;;4967067;29;20034;-80
2021/05/30 06:19:39;;;;;;;12.80;9.18;;;12.10;99.90;;;;;;4962338;29;20058;-79
2021/05/30 06:22:06;;;;;;;11.98;8.90;;;12.20;99.90;;;;;;4965882;29;20059;-81
2021/05/30 06:24:33;;;;;;;15.98;8.55;;;12.30;99.90;;;;;;4965369;28;20408;-80
2021/05/30 06:26:59;;;;;;;11.25;7.55;;;12.50;99.90;;;;;;4949400;29;20027;-81
2021/05/30 06:29:25;;;;;;;14.75;9.23;;;12.80;99.90;;;;;;4965605;29;20038;-80
2021/05/30 06:31:51;;;;;;;11.00;7.97;;;12.90;99.90;;;;;;4966404;28;20039;-80
2021/05/30 06:34:17;;;;;;;10.82;8.00;;;13.00;99.90;;;;;;4965450;29;20042;-81
2021/05/30 06:36:43;;;;;;;11.57;8.45;;;13.10;99.90;;;;;;4965198;29;20055;-80
2021/05/30 06:39:10;;;;;;;8.95;7.65;;;13.30;99.90;;;;;;4966958;28;20038;-80
2021/05/30 06:41:36;;;;;;;11.07;7.38;;;13.30;99.90;;;;;;4966924;28;20031;-81
2021/05/30 06:44:03;;;;;;;13.65;8.95;;;13.30;99.90;;;;;;4962588;29;20100;-80
2021/05/30 06:46:29;;;;;;;10.25;7.95;;;13.50;99.90;;;;;;4946157;29;20032;-80
2021/05/30 06:48:54;;;;;;;11.23;8.45;;;13.60;99.90;;;;;;4970609;23;20071;-81
2021/05/30 06:51:22;;;;;;;14.95;9.00;;;13.80;99.90;;;;;;4962952;29;20040;-81
2021/05/30 06:53:50;;;;;;;11.15;9.13;;;13.70;99.90;;;;;;4946748;29;20080;-81
2021/05/30 06:56:16;;;;;;;11.52;9.15;;;13.90;99.90;;;;;;4947716;29;20035;-81
2021/05/30 06:58:41;;;;;;;11.82;8.02;;;14.30;99.90;;;;;;4946684;29;20042;-81
2021/05/30 07:01:07;;;;;;;11.73;8.05;;;14.40;99.90;;;;;;4947884;29;20052;-81
2021/05/30 07:03:33;;;;;;;11.38;7.70;;;14.40;99.90;;;;;;4946715;29;20087;-82
2021/05/30 07:05:59;;;;;;;9.27;7.75;;;14.50;99.90;;;;;;4946086;29;20039;-81
2021/05/30 07:08:26;;;;;;;12.30;9.00;;;14.60;99.90;;;;;;4945992;29;20031;-81
2021/05/30 07:10:54;;;;;;;14.05;8.60;;;14.50;99.90;;;;;;4947425;29;20051;-80
2021/05/30 07:13:20;;;;;;;10.38;7.85;;;14.60;99.90;;;;;;4946161;29;20032;-81
2021/05/30 07:15:48;;;;;;;9.90;7.70;;;15.00;99.90;;;;;;4947384;29;20039;-81
2021/05/30 07:18:14;;;;;;;12.27;8.40;;;15.10;99.90;;;;;;4947434;29;20175;-81
2021/05/30 07:20:43;;;;;;;10.05;7.22;;;15.20;99.90;;;;;;4945837;29;20034;-81
2021/05/30 07:23:10;;;;;;;8.30;6.70;;;15.30;99.90;;;;;;4943900;29;20288;-81
2021/05/30 07:25:37;;;;;;;10.38;8.20;;;15.50;99.90;;;;;;4946582;29;20026;-82
2021/05/30 07:28:03;;;;;;;10.77;7.95;;;15.60;99.90;;;;;;4959877;29;20127;-80
2021/05/30 07:30:29;;;;;;;13.65;7.88;;;15.80;99.90;;;;;;4961708;29;20059;-81
2021/05/30 07:32:54;;;;;;;7.47;6.40;;;15.90;99.90;;;;;;4945813;29;20036;-82
2021/05/30 07:35:20;;;;;;;9.73;6.80;;;16.20;99.90;;;;;;4944192;29;20027;-81
2021/05/30 07:37:46;;;;;;;10.07;7.25;;;16.10;99.90;;;;;;4947520;29;20097;-82
2021/05/30 07:40:12;;;;;;;8.23;6.97;;;16.30;99.90;;;;;;4948371;29;20059;-82
2021/05/30 07:42:46;;;;;;;8.05;6.53;;;16.30;99.90;;;;;;4949179;29;20024;-82
2021/05/30 07:45:13;;;;;;;8.70;7.20;;;16.40;99.90;;;;;;4964031;29;20036;-82
2021/05/30 07:47:40;;;;;;;8.00;6.70;;;16.60;99.90;;;;;;4950640;29;20039;-81
2021/05/30 07:50:07;;;;;;;10.80;6.88;;;16.60;99.90;;;;;;4964321;29;20055;-81
2021/05/30 07:52:32;;;;;;;7.35;6.22;;;16.60;99.90;;;;;;4952251;29;20082;-82
2021/05/30 07:54:58;;;;;;;6.68;5.93;;;16.80;99.90;;;;;;4950580;29;20051;-82
2021/05/30 07:57:23;;;;;;;8.68;6.22;;;17.00;99.90;;;;;;4956592;29;20082;-82
2021/05/30 07:59:49;;;;;;;7.07;4.93;;;17.10;99.90;;;;;;4968075;29;20050;-81
2021/05/30 08:02:15;;;;;;;8.55;6.35;;;16.80;99.90;;;;;;4957446;29;20345;-81
2021/05/30 08:04:40;;;;;;;7.70;6.07;;;17.00;99.90;;;;;;4953168;29;20027;-82
2021/05/30 08:07:08;;;;;;;7.82;5.47;;;17.30;99.90;;;;;;4959757;29;20038;-81
2021/05/30 08:09:34;;;;;;;7.75;4.95;;;17.40;99.90;;;;;;4958612;29;20042;-82
2021/05/30 08:12:00;;;;;;;8.50;6.70;;;17.20;99.90;;;;;;4958121;29;20055;-82
2021/05/30 08:14:26;;;;;;;10.10;5.70;;;17.30;99.90;;;;;;4956730;29;20046;-82
2021/05/30 08:16:52;;;;;;;8.32;6.00;;;17.50;99.90;;;;;;4958017;29;20042;-82
2021/05/30 08:19:17;;;;;;;7.05;5.70;;;17.70;99.90;;;;;;5003309;23;20055;-82
2021/05/30 08:21:44;;;;;;;6.20;4.63;;;17.60;99.90;;;;;;4987495;28;20031;-80
2021/05/30 08:24:10;;;;;;;9.00;6.78;;;17.70;99.90;;;;;;4987644;28;20102;-82
2021/05/30 08:26:37;;;;;;;9.05;6.88;;;17.70;99.90;;;;;;5002806;28;20027;-82
2021/05/30 08:29:06;;;;;;;7.35;4.90;;;17.90;99.90;;;;;;5001794;28;20106;-81
2021/05/30 08:31:32;;;;;;;6.53;5.82;;;18.40;99.90;;;;;;4985732;28;20035;-82
2021/05/30 08:33:57;;;;;;;6.65;5.05;;;18.70;99.90;;;;;;4986162;28;20030;-81
2021/05/30 08:36:23;;;;;;;7.15;6.03;;;18.80;99.90;;;;;;4985797;28;20062;-81
2021/05/30 08:38:49;;;;;;;8.52;5.38;;;18.20;99.90;;;;;;4987403;28;20026;-81
2021/05/30 08:41:18;;;;;;;6.55;5.22;;;18.70;99.90;;;;;;4986568;28;20073;-81
2021/05/30 08:43:44;;;;;;;4.30;3.88;;;18.60;99.90;;;;;;4986070;28;20031;-82
2021/05/30 08:46:10;;;;;;;6.78;3.72;;;18.80;99.90;;;;;;4986957;28;20050;-83
2021/05/30 08:48:36;;;;;;;4.40;4.00;;;18.90;99.90;;;;;;4986193;28;20042;-82
2021/05/30 08:51:03;;;;;;;5.13;3.65;;;18.60;99.90;;;;;;4984583;28;20066;-81
2021/05/30 08:53:31;;;;;;;4.13;3.15;;;19.20;99.90;;;;;;4985448;28;20047;-82
2021/05/30 08:55:57;;;;;;;4.57;2.45;;;18.90;99.90;;;;;;5003243;28;20038;-82
2021/05/30 08:58:42;;;;;;;2.50;1.75;;;19.10;99.90;;;;;;5003130;28;20030;-81
2021/05/30 09:01:09;;;;;;;4.68;3.60;;;19.10;99.90;;;;;;4985949;28;20039;-82
2021/05/30 09:03:51;;;;;;;4.10;2.53;;;19.10;99.90;;;;;;5002959;28;20042;-82
2021/05/30 09:06:18;;;;;;;4.30;2.25;;;19.00;99.90;;;;;;4988237;28;20057;-82
2021/05/30 09:08:44;;;;;;;6.55;2.45;;;19.30;99.90;;;;;;4983239;28;20034;-81
2021/05/30 09:11:10;;;;;;;3.72;2.03;;;19.40;99.90;;;;;;4966931;28;20039;-82
2021/05/30 09:13:54;;;;;;;3.22;1.58;;;19.20;99.90;;;;;;4967488;28;20031;-83
2021/05/30 09:16:21;;;;;;;2.92;1.67;;;19.70;99.90;;;;;;4970032;28;20066;-82
2021/05/30 09:18:48;;;;;;;3.65;2.20;;;19.60;99.90;;;;;;4984134;28;20098;-81
2021/05/30 09:21:14;;;;;;;3.75;2.47;;;19.70;99.90;;;;;;4986204;28;20057;-82
2021/05/30 09:23:46;;;;;;;2.95;1.77;;;19.60;99.90;;;;;;4986496;28;20038;-85
2021/05/30 09:26:18;;;;;;;4.18;2.03;;;19.70;99.90;;;;;;4983512;28;20110;-82
2021/05/30 09:29:02;;;;;;;2.30;1.63;;;19.90;99.90;;;;;;4994474;28;20444;-82
2021/05/30 09:31:29;;;;;;;2.22;1.17;;;20.40;99.90;;;;;;5005398;28;20041;-83
2021/05/30 09:33:55;;;;;;;2.85;1.35;;;20.40;99.90;;;;;;5005681;28;20080;-82
2021/05/30 09:36:21;;;;;;;3.33;1.90;;;19.90;99.90;;;;;;5006657;28;20120;-82
2021/05/30 09:39:00;;;;;;;3.65;1.83;;;20.00;99.90;;;;;;4990151;28;20096;-82
2021/05/30 09:41:26;;;;;;;3.10;1.55;;;20.00;99.90;;;;;;5005375;28;20026;-82
2021/05/30 09:43:54;;;;;;;2.40;1.33;;;20.30;99.90;;;;;;4994431;28;20055;-83
2021/05/30 09:46:30;;;;;;;2.60;1.30;;;20.10;99.90;;;;;;4987033;28;20093;-82
2021/05/30 09:48:58;;;;;;;2.40;1.13;;;20.30;99.90;;;;;;4988119;28;20066;-82
2021/05/30 09:51:40;;;;;;;2.92;1.55;;;20.40;99.90;;;;;;5001923;28;20121;-81
2021/05/30 09:54:13;;;;;;;2.33;1.60;;;20.10;99.90;;;;;;4969060;28;20046;-82
2021/05/30 09:56:52;;;;;;;2.30;1.00;;;20.40;99.90;;;;;;4985321;28;20023;-82
2021/05/30 09:59:20;;;;;;;1.33;0.50;;;20.50;99.90;;;;;;4984330;28;20143;-81
2021/05/30 10:01:59;;;;;;;2.60;0.93;;;20.30;99.90;;;;;;4985059;28;20035;-82
2021/05/30 10:04:28;;;;;;;2.42;0.70;;;20.10;99.90;;;;;;4985701;28;20023;-82
2021/05/30 10:06:56;;;;;;;2.80;1.17;;;20.60;99.90;;;;;;5001448;28;20034;-82
2021/05/30 10:09:22;;;;;;;2.13;0.88;;;20.80;99.90;;;;;;4984719;28;20444;-81
2021/05/30 10:11:48;;;;;;;1.70;0.80;;;20.70;99.90;;;;;;4987875;28;20532;-82
2021/05/30 10:14:14;;;;;;;3.90;1.10;;;20.60;99.90;;;;;;4985910;28;20031;-82
2021/05/30 10:16:40;;;;;;;2.47;0.80;;;20.40;99.90;;;;;;4985099;28;20045;-82
2021/05/30 10:19:20;;;;;;;2.10;0.70;;;20.50;99.90;;;;;;4985493;28;20058;-82
2021/05/30 10:21:49;;;;;;;1.77;0.60;;;20.80;99.90;;;;;;4985717;28;20046;-81
2021/05/30 10:24:16;;;;;;;1.17;0.40;;;20.80;99.90;;;;;;4985095;28;20039;-82
2021/05/30 10:26:43;;;;;;;4.72;0.60;;;21.10;99.90;;;;;;4986317;28;20050;-82
2021/05/30 10:29:15;;;;;;;1.75;0.60;;;21.80;99.90;;;;;;5016987;28;20034;-82
2021/05/30 10:31:43;;;;;;;2.20;0.60;;;21.20;99.90;;;;;;5001389;28;20558;-82
2021/05/30 10:34:17;;;;;;;2.03;0.60;;;21.40;99.90;;;;;;4985022;28;20429;-81
2021/05/30 10:37:03;;;;;;;0.90;0.40;;;21.50;99.90;;;;;;5001078;28;20038;-82
2021/05/30 10:39:28;;;;;;;1.35;0.60;;;22.20;99.90;;;;;;4997292;28;20058;-81
2021/05/30 10:42:10;;;;;;;2.25;0.50;;;22.00;99.90;;;;;;4984541;28;20023;-81
2021/05/30 10:44:54;;;;;;;1.67;0.50;;;21.40;99.90;;;;;;4984847;28;20038;-82
2021/05/30 10:47:40;;;;;;;1.00;0.40;;;21.20;99.90;;;;;;5001174;28;20034;-81
2021/05/30 10:50:18;;;;;;;1.55;0.50;;;21.10;99.90;;;;;;4985945;28;20101;-80
2021/05/30 10:52:46;;;;;;;0.80;0.30;;;21.10;99.40;;;;;;4940449;28;20046;-83
2021/05/30 10:55:16;;;;;;;0.65;0.22;;;21.80;98.50;;;;;;4985646;28;20058;-81
2021/05/30 10:57:46;;;;;;;1.20;0.30;;;21.80;99.10;;;;;;4984116;28;20476;-81
2021/05/30 11:00:20;;;;;;;0.90;0.40;;;21.70;99.30;;;;;;4984720;28;20031;-81
2021/05/30 11:03:05;;;;;;;0.70;0.40;;;22.20;99.60;;;;;;4984886;28;20038;-82
2021/05/30 11:05:57;;;;;;;1.10;0.38;;;22.30;99.90;;;;;;4984635;28;20094;-82
2021/05/30 11:08:34;;;;;;;1.67;0.38;;;22.10;95.60;;;;;;4931989;29;20147;-81
2021/05/30 11:11:24;;;;;;;1.30;0.30;;;22.00;99.60;;;;;;4932231;29;20063;-82
2021/05/30 11:13:50;;;;;;;;;;;22.40;97.50;;;;;;4936069;29;20039;-80
2021/05/30 11:16:25;;;;;;;0.93;0.35;;;22.70;95.10;;;;;;4951851;29;19917;-81
2021/05/30 11:19:08;;;;;;;0.65;0.20;;;22.30;95.90;;;;;;4967778;29;20047;-81
2021/05/30 11:21:42;;;;;;;0.70;0.30;;;22.20;94.70;;;;;;4968124;29;20043;-81
2021/05/30 11:24:16;;;;;;;1.05;0.60;;;22.60;95.10;;;;;;4951904;29;20063;-81
2021/05/30 11:27:05;;;;;;;2.75;0.30;;;23.20;93.80;;;;;;4970065;28;20106;-80
2021/05/30 11:29:33;;;;;;;1.20;0.40;;;22.60;92.20;;;;;;4954902;28;20629;-81
2021/05/30 11:31:59;;;;;;;0.55;0.30;;;22.40;91.70;;;;;;4987099;28;20046;-81
2021/05/30 11:34:29;;;;;;;1.00;0.40;;;22.00;94.50;;;;;;4970805;28;20112;-81
2021/05/30 11:37:10;;;;;;;0.70;0.20;;;22.60;95.10;;;;;;4970331;28;20065;-81
2021/05/30 11:39:38;;;;;;;0.70;0.20;;;23.40;94.80;;;;;;4970654;28;20490;-82
2021/05/30 11:42:04;;;;;;;0.90;0.20;;;23.30;93.20;;;;;;4969688;28;20029;-81
2021/05/30 11:44:31;;;;;;;0.60;0.20;;;23.40;91.60;;;;;;4971916;28;20035;-81
2021/05/30 11:47:01;;;;;;;0.82;0.22;;;23.40;91.70;;;;;;4968433;28;20035;-80
2021/05/30 11:49:32;;;;;;;1.10;0.43;;;23.20;91.00;;;;;;4968614;29;20054;-81
2021/05/30 11:52:20;;;;;;;2.08;0.50;;;22.50;90.30;;;;;;4952306;29;20090;-80
2021/05/30 11:54:52;;;;;;;1.10;0.30;;;22.40;91.90;;;;;;4968705;29;20031;-82
2021/05/30 11:57:20;;;;;;;0.60;0.30;;;22.60;91.50;;;;;;4969157;28;20035;-81
2021/05/30 11:59:58;;;;;;;2.45;0.30;;;22.70;90.60;;;;;;4968453;29;20043;-80
2021/05/30 12:02:45;;;;;;;1.00;0.32;;;23.00;90.70;;;;;;4952600;29;20035;-81
2021/05/30 12:05:34;;;;;;;0.82;0.30;;;23.30;92.30;;;;;;4968170;29;20043;-80
2021/05/30 12:08:10;;;;;;;0.95;0.20;;;23.40;91.00;;;;;;4931982;29;20050;-81
2021/05/30 12:10:48;;;;;;;1.88;0.50;;;22.80;90.60;;;;;;4947755;29;20056;-80
2021/05/30 12:13:26;;;;;;;0.95;0.38;;;22.00;92.10;;;;;;4932967;29;20112;-81
2021/05/30 12:15:53;;;;;;;0.68;0.30;;;23.00;92.70;;;;;;4913113;29;20032;-80
2021/05/30 12:18:19;;;;;;;1.33;0.30;;;23.50;91.20;;;;;;4928590;29;20072;-80
2021/05/30 12:20:45;;;;;;;0.80;0.28;;;23.30;88.20;;;;;;4931990;29;20039;-79
2021/05/30 12:23:19;;;;;;;1.73;0.32;;;23.00;89.10;;;;;;4946663;29;20032;-79
2021/05/30 12:25:59;;;;;;;2.58;0.40;;;23.10;89.60;;;;;;4924202;29;20139;-81
2021/05/30 12:28:32;;;;;;;1.73;0.40;;;23.10;92.40;;;;;;4930460;29;20114;-82
2021/05/30 12:31:03;;;;;;;0.90;0.30;;;23.30;92.40;;;;;;4947706;29;20071;-81
2021/05/30 12:33:28;;;;;;;0.65;0.20;;;23.60;91.00;;;;;;4947579;29;20038;-80
2021/05/30 12:35:55;;;;;;;1.55;0.50;;;23.60;90.40;;;;;;4947292;29;20096;-80
2021/05/30 12:38:26;;;;;;;1.00;0.20;;;23.30;90.90;;;;;;4947288;29;20036;-80
2021/05/30 12:40:52;;;;;;;1.15;0.35;;;23.50;88.60;;;;;;4931652;29;20078;-81
2021/05/30 12:43:40;;;;;;;0.70;0.25;;;23.50;88.70;;;;;;4930737;29;20550;-81
2021/05/30 12:46:09;;;;;;;0.73;0.20;;;23.50;89.50;;;;;;4949953;29;20111;-80
2021/05/30 12:48:43;;;;;;;0.40;0.20;;;23.50;86.40;;;;;;4967628;28;20034;-80
2021/05/30 12:51:16;;;;;;;0.80;0.20;;;23.60;87.70;;;;;;4967465;29;20047;-81
2021/05/30 12:53:45;;;;;;;0.75;0.20;;;23.80;85.80;;;;;;4983467;28;20122;-80
2021/05/30 12:56:23;;;;;;;1.13;0.20;;;24.00;83.90;;;;;;4967088;29;20053;-80